Kathy C — 2CTI7 — position and weather

sailwx.info

Track history (hours):
 
Tides and Currents Weather Stations Pressure Air Temp Water Temp Dewpoint Dewpoint Depression Visibility Wind Speed Wind Dir Waves Ship Positions

Kathy C

Last reported at 2015-Jan-17 13:33 UTC. Time now 2015-Feb-28 15:54 UTC.
Position N 37°33' E 023°40'.
Warning: this ship's position is 42 days out of date.

Length 106 m; draft 5.9 m.

Type: Cargo ship. MMSI: 235075591.

Date/timePositionNaut miles runAvg speedWind from/ knotsBaromVisibWave heightAir tempDewpointWater temp
2015-Jan-17 13:33N 37°33' E 023°40'9 9.1
2015-Jan-17 12:33N 37°42' E 023°41'1010.3
2015-Jan-17 11:33N 37°50' E 023°34'3 2.4
2015-Jan-17 10:31N 37°51' E 023°31'0 0.0
2015-Jan-17 09:31N 37°52' E 023°31'0 0.0
2015-Jan-17 08:31N 37°51' E 023°32'0 0.0
2015-Jan-17 07:31N 37°51' E 023°31'0 0.0
2015-Jan-17 06:31N 37°51' E 023°31'1 0.8
2015-Jan-17 05:33N 37°51' E 023°32'8 8.0
2015-Jan-17 04:33N 37°47' E 023°41'8 8.1
2015-Jan-17 03:33N 37°40' E 023°46'21 6.8
2015-Jan-17 00:30N 37°29' E 024°08'147 8.0
2015-Jan-16 06:15N 39°36' E 025°41'6010.3
2015-Jan-16 00:24N 40°19' E 026°36'  
Track history (hours):
 
Tides and Currents Weather Stations Pressure Air Temp Water Temp Dewpoint Dewpoint Depression Visibility Wind Speed Wind Dir Waves Ship Positions

Kathy C

Last reported at 2015-Jan-17 13:33 UTC. Time now 2015-Feb-28 15:54 UTC.
Position N 37°33' E 023°40'.
Warning: this ship's position is 42 days out of date.

Length 106 m; draft 5.9 m.

Type: Cargo ship. MMSI: 235075591.

Date/timePositionNaut miles runAvg speedWind from/ knotsBaromVisibWave heightAir tempDewpointWater temp
2015-Jan-17 13:33N 37°33' E 023°40'9 9.1
2015-Jan-17 12:33N 37°42' E 023°41'1010.3
2015-Jan-17 11:33N 37°50' E 023°34'3 2.4
2015-Jan-17 10:31N 37°51' E 023°31'0 0.0
2015-Jan-17 09:31N 37°52' E 023°31'0 0.0
2015-Jan-17 08:31N 37°51' E 023°32'0 0.0
2015-Jan-17 07:31N 37°51' E 023°31'0 0.0
2015-Jan-17 06:31N 37°51' E 023°31'1 0.8
2015-Jan-17 05:33N 37°51' E 023°32'8 8.0
2015-Jan-17 04:33N 37°47' E 023°41'8 8.1
2015-Jan-17 03:33N 37°40' E 023°46'21 6.8
2015-Jan-17 00:30N 37°29' E 024°08'147 8.0
2015-Jan-16 06:15N 39°36' E 025°41'6010.3
2015-Jan-16 00:24N 40°19' E 026°36'  

Dump ship's entire track history